Time;durP1;ratioP1;P1;durP2;ratioP2;P2;SDS_P1;SDS_P2;PMS_P1;PMS_P2;Temp;Humidity;BMP_temperature;BMP_pressure;BME280_temperature;BME280_humidity;BME280_pressure;Samples;Min_cycle;Max_cycle;Signal;HPM_P1;HPM_P2
2023/12/31 00:02:06;;;;;;;3.78;1.10;;;8.90;82.80;;;;;;6209984;23;20470;-74
2023/12/31 00:04:34;;;;;;;5.05;1.35;;;8.90;82.90;;;;;;6211165;23;20021;-72
2023/12/31 00:07:01;;;;;;;4.43;1.30;;;8.90;82.90;;;;;;6211898;22;20035;-73
2023/12/31 00:09:28;;;;;;;3.42;1.10;;;8.90;82.80;;;;;;6182067;23;20025;-72
2023/12/31 00:11:55;;;;;;;4.33;1.23;;;8.90;82.90;;;;;;6208912;23;20048;-73
2023/12/31 00:14:22;;;;;;;3.40;1.13;;;8.90;82.80;;;;;;6211821;22;20084;-75
2023/12/31 00:16:50;;;;;;;3.33;1.23;;;8.90;82.80;;;;;;6210027;22;20032;-75
2023/12/31 00:19:17;;;;;;;4.43;1.50;;;8.90;82.90;;;;;;6210097;23;20025;-72
2023/12/31 00:21:44;;;;;;;5.03;1.38;;;8.90;82.90;;;;;;6209448;22;20025;-73
2023/12/31 00:24:11;;;;;;;4.67;1.33;;;8.90;82.90;;;;;;6208704;23;20033;-72
2023/12/31 00:26:38;;;;;;;5.32;1.45;;;8.90;82.90;;;;;;6203589;23;20025;-74
2023/12/31 00:29:09;;;;;;;3.83;1.38;;;8.90;82.90;;;;;;6181971;23;20025;-74
2023/12/31 00:31:36;;;;;;;4.30;1.42;;;8.90;83.00;;;;;;6207405;23;20115;-75
2023/12/31 00:34:05;;;;;;;4.20;1.50;;;8.90;82.90;;;;;;6207852;23;20080;-73
2023/12/31 00:36:33;;;;;;;4.67;1.33;;;8.80;82.80;;;;;;6205938;23;20030;-75
2023/12/31 00:39:00;;;;;;;5.50;1.80;;;8.80;82.90;;;;;;6208703;22;20437;-73
2023/12/31 00:41:27;;;;;;;5.35;1.60;;;8.80;82.90;;;;;;6208733;22;20427;-73
2023/12/31 00:43:54;;;;;;;4.57;1.42;;;8.80;82.90;;;;;;6181788;23;20100;-72
2023/12/31 00:46:24;;;;;;;4.13;1.40;;;8.80;83.00;;;;;;6203734;23;20025;-74
2023/12/31 00:48:51;;;;;;;4.87;1.43;;;8.80;82.90;;;;;;6207608;23;20107;-72
2023/12/31 00:51:20;;;;;;;4.60;1.48;;;8.80;82.80;;;;;;6207939;23;20020;-73
2023/12/31 00:53:47;;;;;;;3.75;1.20;;;8.80;82.80;;;;;;6209619;22;20467;-75
2023/12/31 00:56:14;;;;;;;4.57;1.55;;;8.80;82.90;;;;;;6182088;23;20037;-74
2023/12/31 00:58:41;;;;;;;4.18;1.55;;;8.80;83.00;;;;;;6208110;23;20017;-72
2023/12/31 01:01:08;;;;;;;5.07;1.47;;;8.80;82.90;;;;;;6182335;23;20446;-73
2023/12/31 01:03:36;;;;;;;4.55;1.25;;;8.80;83.00;;;;;;6183117;23;20104;-74
2023/12/31 01:06:06;;;;;;;3.63;1.20;;;8.90;82.90;;;;;;6206021;23;20029;-73
2023/12/31 01:08:35;;;;;;;5.07;1.35;;;8.80;82.80;;;;;;6209298;23;20263;-73
2023/12/31 01:11:02;;;;;;;4.22;1.15;;;8.80;82.80;;;;;;6208068;23;20017;-73
2023/12/31 01:13:30;;;;;;;4.00;1.30;;;8.80;82.90;;;;;;6206972;23;20025;-73
2023/12/31 01:15:57;;;;;;;3.90;1.10;;;8.80;82.90;;;;;;6206497;23;20031;-75
2023/12/31 01:18:24;;;;;;;4.40;1.08;;;8.80;82.90;;;;;;6206975;23;20029;-72
2023/12/31 01:20:51;;;;;;;3.70;1.20;;;8.80;82.80;;;;;;6209276;22;20135;-73
2023/12/31 01:23:18;;;;;;;5.25;1.15;;;8.80;82.80;;;;;;6184595;23;20045;-73
2023/12/31 01:25:46;;;;;;;4.47;1.10;;;8.80;82.80;;;;;;6207359;23;20021;-73
2023/12/31 01:28:14;;;;;;;3.03;0.75;;;8.80;82.90;;;;;;6210198;23;20073;-74
2023/12/31 01:30:44;;;;;;;4.25;1.10;;;8.80;82.90;;;;;;6208312;23;20025;-77
2023/12/31 01:33:16;;;;;;;3.85;1.00;;;8.80;82.80;;;;;;6208439;23;20470;-76
2023/12/31 01:35:47;;;;;;;2.55;0.82;;;8.80;82.80;;;;;;6183180;23;20025;-73
2023/12/31 01:38:21;;;;;;;4.13;0.93;;;8.80;82.80;;;;;;6208844;23;20071;-73
2023/12/31 01:40:56;;;;;;;2.60;0.80;;;8.80;82.80;;;;;;6159208;23;20025;-75
2023/12/31 01:43:28;;;;;;;3.53;0.88;;;8.80;82.70;;;;;;6184055;23;20241;-74
2023/12/31 01:46:36;;;;;;;3.45;0.90;;;8.70;82.80;;;;;;6213193;22;20020;-77
2023/12/31 01:49:10;;;;;;;3.80;1.08;;;8.70;82.80;;;;;;6212096;23;20658;-73
2023/12/31 01:51:43;;;;;;;3.77;1.00;;;8.70;82.80;;;;;;6186346;23;20032;-75
2023/12/31 01:54:34;;;;;;;4.30;1.17;;;8.70;82.90;;;;;;6212124;23;20029;-73
2023/12/31 01:57:08;;;;;;;3.45;1.10;;;8.70;82.80;;;;;;6188608;23;20123;-73
2023/12/31 01:59:48;;;;;;;3.20;1.10;;;8.70;82.90;;;;;;6186572;23;20036;-72
2023/12/31 02:02:25;;;;;;;4.25;0.93;;;8.70;82.80;;;;;;6185245;23;20029;-72
2023/12/31 02:04:59;;;;;;;3.60;1.00;;;8.70;82.90;;;;;;6213796;23;20765;-73
2023/12/31 02:07:36;;;;;;;4.40;0.88;;;8.70;82.90;;;;;;6188075;23;20032;-77
2023/12/31 02:10:10;;;;;;;3.38;0.90;;;8.70;82.80;;;;;;6214332;22;20025;-73
2023/12/31 02:12:49;;;;;;;2.80;0.80;;;8.70;82.80;;;;;;6185962;23;20025;-74
2023/12/31 02:15:32;;;;;;;3.47;1.10;;;8.70;82.70;;;;;;6164342;23;20021;-76
2023/12/31 02:18:07;;;;;;;3.43;1.10;;;8.60;82.80;;;;;;6186756;23;20134;-73
2023/12/31 02:20:44;;;;;;;3.67;1.00;;;8.60;82.70;;;;;;6210480;23;20117;-77
2023/12/31 02:23:39;;;;;;;3.20;0.95;;;8.60;82.70;;;;;;6149255;23;20169;-75
2023/12/31 02:26:19;;;;;;;3.72;1.00;;;8.60;82.70;;;;;;6180505;23;20032;-74
2023/12/31 02:28:54;;;;;;;4.30;1.10;;;8.60;82.60;;;;;;6185920;23;20100;-76
2023/12/31 02:31:26;;;;;;;3.87;0.90;;;8.60;82.60;;;;;;6209866;23;20024;-73
2023/12/31 02:33:53;;;;;;;4.82;1.20;;;8.60;82.60;;;;;;6212224;23;20029;-74
2023/12/31 02:36:20;;;;;;;4.05;1.13;;;8.60;82.40;;;;;;6211545;23;20113;-73
2023/12/31 02:38:49;;;;;;;3.55;0.80;;;8.60;82.40;;;;;;6212179;23;20063;-72
2023/12/31 02:41:28;;;;;;;4.63;1.25;;;8.60;82.50;;;;;;6206765;23;20025;-75
2023/12/31 02:44:06;;;;;;;3.50;0.90;;;8.60;82.40;;;;;;6188139;23;20572;-75
2023/12/31 02:49:37;;;;;;;3.67;1.30;;;8.60;82.50;;;;;;6213826;22;20059;-77
2023/12/31 02:52:05;;;;;;;3.72;0.98;;;8.60;82.50;;;;;;6212645;23;20025;-73
2023/12/31 02:54:32;;;;;;;3.38;0.93;;;8.60;82.40;;;;;;6213809;23;20021;-73
2023/12/31 02:57:01;;;;;;;3.13;0.93;;;8.60;82.40;;;;;;6213155;23;20048;-74
2023/12/31 02:59:28;;;;;;;3.85;1.05;;;8.60;82.40;;;;;;6182753;23;20065;-75
2023/12/31 03:01:55;;;;;;;3.72;1.02;;;8.60;82.40;;;;;;6186415;23;20025;-72
2023/12/31 03:04:22;;;;;;;3.22;1.00;;;8.60;82.40;;;;;;6186288;23;20033;-75
2023/12/31 03:06:51;;;;;;;3.28;0.98;;;8.60;82.40;;;;;;6214489;22;20426;-75
2023/12/31 03:09:18;;;;;;;3.17;1.00;;;8.60;82.40;;;;;;6212088;23;20021;-72
2023/12/31 03:11:46;;;;;;;3.85;1.17;;;8.60;82.30;;;;;;6186762;23;20029;-76
2023/12/31 03:14:16;;;;;;;4.35;1.10;;;8.60;82.40;;;;;;6213344;23;20110;-73
2023/12/31 03:16:45;;;;;;;3.35;0.93;;;8.60;82.40;;;;;;6187195;23;20088;-74
2023/12/31 03:19:12;;;;;;;4.10;1.00;;;8.60;82.40;;;;;;6211092;22;20576;-75
2023/12/31 03:21:39;;;;;;;4.07;0.97;;;8.60;82.30;;;;;;6212975;22;20021;-72
2023/12/31 03:24:08;;;;;;;3.10;0.90;;;8.60;82.40;;;;;;6211167;23;20025;-76
2023/12/31 03:26:35;;;;;;;4.22;1.10;;;8.60;82.50;;;;;;6212889;23;20029;-74
2023/12/31 03:29:02;;;;;;;3.63;0.98;;;8.60;82.50;;;;;;6186101;23;20035;-77
2023/12/31 03:31:31;;;;;;;2.90;0.90;;;8.60;82.50;;;;;;6213545;22;20474;-72
2023/12/31 03:33:58;;;;;;;4.20;0.80;;;8.60;82.50;;;;;;6213199;23;20493;-72
2023/12/31 03:36:25;;;;;;;3.30;0.90;;;8.60;82.50;;;;;;6213590;22;20824;-72
2023/12/31 03:38:53;;;;;;;3.40;1.23;;;8.70;82.40;;;;;;6210647;22;20076;-73
2023/12/31 03:41:20;;;;;;;2.88;0.75;;;8.60;82.40;;;;;;6212960;22;20814;-74
2023/12/31 03:43:47;;;;;;;4.10;1.00;;;8.70;82.30;;;;;;6211933;23;20028;-74
2023/12/31 03:46:14;;;;;;;3.50;0.90;;;8.60;82.30;;;;;;6211681;22;20133;-77
2023/12/31 03:48:43;;;;;;;3.42;0.90;;;8.70;82.30;;;;;;6214290;22;20025;-73
2023/12/31 03:51:10;;;;;;;3.55;0.93;;;8.70;82.30;;;;;;6185534;23;20021;-74
2023/12/31 03:53:37;;;;;;;3.03;0.80;;;8.70;82.30;;;;;;6213215;22;20048;-75
2023/12/31 03:56:05;;;;;;;2.90;1.00;;;8.70;82.20;;;;;;6211463;22;20025;-72
2023/12/31 03:58:32;;;;;;;4.20;0.87;;;8.70;82.20;;;;;;6212052;23;20098;-74
2023/12/31 04:00:59;;;;;;;3.88;0.80;;;8.70;82.20;;;;;;6185894;23;20099;-74
2023/12/31 04:03:26;;;;;;;3.50;1.15;;;8.70;82.20;;;;;;6211373;23;20021;-73
2023/12/31 04:05:54;;;;;;;3.65;0.95;;;8.70;82.10;;;;;;6212153;22;20048;-73
2023/12/31 04:08:22;;;;;;;3.47;1.00;;;8.70;82.00;;;;;;6185894;23;20063;-75
2023/12/31 04:10:49;;;;;;;3.63;0.90;;;8.70;82.00;;;;;;6210571;23;20020;-74
2023/12/31 04:13:19;;;;;;;3.53;1.10;;;8.70;82.10;;;;;;6213254;22;20084;-73
2023/12/31 04:15:46;;;;;;;3.72;1.20;;;8.70;82.10;;;;;;6210242;22;20104;-72
2023/12/31 04:18:13;;;;;;;3.17;0.90;;;8.70;82.10;;;;;;6213448;22;20028;-75
2023/12/31 04:20:40;;;;;;;4.38;1.13;;;8.70;82.10;;;;;;6212339;22;20025;-75
2023/12/31 04:23:09;;;;;;;3.03;0.80;;;8.80;81.90;;;;;;6187764;23;20021;-76
2023/12/31 04:25:36;;;;;;;3.60;1.10;;;8.80;81.60;;;;;;6186181;23;20024;-73
2023/12/31 04:28:04;;;;;;;4.53;1.08;;;8.80;81.60;;;;;;6186863;23;20190;-72
2023/12/31 04:30:32;;;;;;;3.60;1.13;;;8.80;81.70;;;;;;6212432;22;20025;-75
2023/12/31 04:32:59;;;;;;;3.47;1.23;;;8.80;81.70;;;;;;6213062;22;20109;-73
2023/12/31 04:35:26;;;;;;;2.83;0.90;;;8.80;81.60;;;;;;6209349;22;20029;-75
2023/12/31 04:37:53;;;;;;;3.67;1.00;;;8.80;81.60;;;;;;6187082;23;20029;-73
2023/12/31 04:40:22;;;;;;;3.08;1.17;;;8.80;81.70;;;;;;6210220;23;20964;-72
2023/12/31 04:42:49;;;;;;;3.28;0.95;;;8.80;81.60;;;;;;6212852;22;20021;-72
2023/12/31 04:45:16;;;;;;;4.15;1.05;;;8.80;81.60;;;;;;6210015;23;20025;-73
2023/12/31 04:47:43;;;;;;;3.90;1.03;;;8.80;81.60;;;;;;6211251;23;20029;-73
2023/12/31 04:50:11;;;;;;;3.72;1.10;;;8.70;81.60;;;;;;6210255;23;20021;-74
2023/12/31 04:52:38;;;;;;;4.25;1.27;;;8.70;81.50;;;;;;6185042;23;20031;-73
2023/12/31 04:55:05;;;;;;;4.50;0.95;;;8.80;81.60;;;;;;6207803;23;20021;-74
2023/12/31 04:57:34;;;;;;;3.63;0.93;;;8.70;81.60;;;;;;6210397;23;20029;-77
2023/12/31 05:00:02;;;;;;;3.70;1.23;;;8.80;81.60;;;;;;6184627;23;20697;-73
2023/12/31 05:02:29;;;;;;;2.80;0.98;;;8.70;81.60;;;;;;6209299;23;20076;-73
2023/12/31 05:04:57;;;;;;;3.80;1.08;;;8.80;81.50;;;;;;6210837;23;20071;-73
2023/12/31 05:07:24;;;;;;;3.40;1.00;;;8.80;81.20;;;;;;6209431;23;20466;-74
2023/12/31 05:09:52;;;;;;;4.28;1.17;;;8.80;81.00;;;;;;6209956;23;20523;-75
2023/12/31 05:12:18;;;;;;;4.67;1.37;;;8.70;81.10;;;;;;6209076;23;20025;-74
2023/12/31 05:14:47;;;;;;;3.47;1.20;;;8.70;81.10;;;;;;6206474;23;20025;-75
2023/12/31 05:17:14;;;;;;;3.78;1.02;;;8.70;81.00;;;;;;6212426;22;20017;-73
2023/12/31 05:19:41;;;;;;;3.30;0.88;;;8.80;80.90;;;;;;6209978;23;21364;-74
2023/12/31 05:22:08;;;;;;;3.60;1.10;;;8.70;81.00;;;;;;6209060;23;20021;-72
2023/12/31 05:24:35;;;;;;;3.87;1.07;;;8.70;81.00;;;;;;6210198;23;20017;-75
2023/12/31 05:27:03;;;;;;;4.82;1.13;;;8.70;81.10;;;;;;6209745;23;20479;-76
2023/12/31 05:29:30;;;;;;;4.30;1.20;;;8.70;81.10;;;;;;6212613;22;20025;-75
2023/12/31 05:31:58;;;;;;;3.58;0.95;;;8.80;81.10;;;;;;6206395;23;20021;-74
2023/12/31 05:34:25;;;;;;;4.18;1.05;;;8.70;80.90;;;;;;6212496;22;20182;-73
2023/12/31 05:36:52;;;;;;;3.00;1.00;;;8.70;80.90;;;;;;6184769;23;20029;-74
2023/12/31 05:39:19;;;;;;;3.90;1.50;;;8.80;81.00;;;;;;6210143;23;20092;-72
2023/12/31 05:41:46;;;;;;;5.22;1.35;;;8.80;80.90;;;;;;6208175;23;20021;-75
2023/12/31 05:44:13;;;;;;;3.58;1.02;;;8.70;81.20;;;;;;6210131;23;20021;-73
2023/12/31 05:46:40;;;;;;;3.03;1.00;;;8.70;81.20;;;;;;6210452;22;20060;-76
2023/12/31 05:49:08;;;;;;;3.20;1.20;;;8.80;81.20;;;;;;6210968;22;20127;-75
2023/12/31 05:51:35;;;;;;;4.07;1.10;;;8.80;81.00;;;;;;6207589;22;20021;-74
2023/12/31 05:54:03;;;;;;;4.05;1.10;;;8.80;81.00;;;;;;6184613;23;20473;-75
2023/12/31 05:56:30;;;;;;;3.50;1.40;;;8.80;80.90;;;;;;6208228;23;20755;-73
2023/12/31 05:58:57;;;;;;;3.55;1.10;;;8.80;80.90;;;;;;6210780;22;20087;-77
2023/12/31 06:01:24;;;;;;;3.63;1.10;;;8.70;80.80;;;;;;6182523;23;20029;-73
2023/12/31 06:03:51;;;;;;;3.92;1.10;;;8.70;80.80;;;;;;6184962;23;20017;-73
2023/12/31 06:06:20;;;;;;;4.35;1.13;;;8.70;80.80;;;;;;6186216;23;20084;-72
2023/12/31 06:08:47;;;;;;;4.43;1.20;;;8.70;80.80;;;;;;6212270;23;20032;-73
2023/12/31 06:11:14;;;;;;;4.10;1.20;;;8.70;80.90;;;;;;6210703;22;20051;-73
2023/12/31 06:13:41;;;;;;;4.10;1.33;;;8.70;80.80;;;;;;6209038;23;20470;-74
2023/12/31 06:16:08;;;;;;;4.78;1.40;;;8.70;80.80;;;;;;6181444;23;20053;-75
2023/12/31 06:18:35;;;;;;;3.85;1.23;;;8.70;80.70;;;;;;6206294;23;20100;-73
2023/12/31 06:21:02;;;;;;;4.07;1.42;;;8.70;80.60;;;;;;6180475;23;20508;-73
2023/12/31 06:23:30;;;;;;;5.18;1.40;;;8.70;80.60;;;;;;6182565;23;20118;-73
2023/12/31 06:25:57;;;;;;;3.77;1.53;;;8.60;80.50;;;;;;6208782;22;20057;-72
2023/12/31 06:28:24;;;;;;;5.03;1.30;;;8.60;80.50;;;;;;6206763;23;20021;-73
2023/12/31 06:30:51;;;;;;;5.13;1.48;;;8.60;80.60;;;;;;6203205;23;20100;-74
2023/12/31 06:33:18;;;;;;;4.10;1.45;;;8.60;80.60;;;;;;6207796;23;20049;-74
2023/12/31 06:35:45;;;;;;;4.65;1.23;;;8.60;80.70;;;;;;6206251;23;20490;-72
2023/12/31 06:38:12;;;;;;;3.87;1.30;;;8.60;80.60;;;;;;6206861;23;20045;-75
2023/12/31 06:40:41;;;;;;;4.13;1.30;;;8.60;80.50;;;;;;6181016;23;20099;-73
2023/12/31 06:43:08;;;;;;;4.93;1.92;;;8.60;80.50;;;;;;6207262;23;20052;-72
2023/12/31 06:45:35;;;;;;;4.97;1.58;;;8.60;80.50;;;;;;6181543;23;20036;-75
2023/12/31 06:48:02;;;;;;;4.30;1.38;;;8.60;80.50;;;;;;6207428;22;20113;-72
2023/12/31 06:50:29;;;;;;;4.60;1.20;;;8.60;80.50;;;;;;6203260;23;20823;-74
2023/12/31 06:52:56;;;;;;;5.47;1.27;;;8.60;80.40;;;;;;6206896;23;20110;-72
2023/12/31 06:55:23;;;;;;;3.78;1.20;;;8.60;80.40;;;;;;6206591;23;20029;-73
2023/12/31 06:57:51;;;;;;;5.57;1.15;;;8.60;80.30;;;;;;6205311;23;20053;-74
2023/12/31 07:00:19;;;;;;;4.47;1.50;;;8.60;80.20;;;;;;6180827;23;20157;-74
2023/12/31 07:02:46;;;;;;;3.77;1.20;;;8.60;80.20;;;;;;6208477;22;20473;-72
2023/12/31 07:05:13;;;;;;;4.63;1.40;;;8.60;80.20;;;;;;6207089;23;20035;-75
2023/12/31 07:07:41;;;;;;;3.78;1.40;;;8.60;80.30;;;;;;6203251;23;20021;-73
2023/12/31 07:10:09;;;;;;;4.10;1.60;;;8.60;80.40;;;;;;6205831;23;20485;-73
2023/12/31 07:12:36;;;;;;;4.22;1.23;;;8.60;80.50;;;;;;6180048;23;20108;-75
2023/12/31 07:15:05;;;;;;;4.37;1.17;;;8.60;80.40;;;;;;6207934;22;20054;-74
2023/12/31 07:17:32;;;;;;;3.80;1.25;;;8.60;80.40;;;;;;6177512;23;20032;-74
2023/12/31 07:19:59;;;;;;;3.63;1.30;;;8.60;80.40;;;;;;6204470;22;20032;-74
2023/12/31 07:22:26;;;;;;;3.78;1.50;;;8.60;80.30;;;;;;6204703;22;20146;-74
2023/12/31 07:24:53;;;;;;;4.10;1.50;;;8.60;80.30;;;;;;6202845;23;20111;-74
2023/12/31 07:27:20;;;;;;;4.97;1.50;;;8.60;80.30;;;;;;6203673;22;20121;-72
2023/12/31 07:29:47;;;;;;;4.03;1.30;;;8.60;80.40;;;;;;6206529;22;20025;-73
2023/12/31 07:32:16;;;;;;;4.20;1.48;;;8.60;80.40;;;;;;6206077;23;20021;-75
2023/12/31 07:34:43;;;;;;;3.70;1.40;;;8.60;80.30;;;;;;6206828;22;20088;-74
2023/12/31 07:37:10;;;;;;;4.22;1.40;;;8.70;80.30;;;;;;6203503;23;20108;-73
2023/12/31 07:39:37;;;;;;;4.60;1.33;;;8.70;80.00;;;;;;6201606;23;20025;-72
2023/12/31 07:42:05;;;;;;;4.55;1.35;;;8.70;80.00;;;;;;6177275;23;20021;-75
2023/12/31 07:44:32;;;;;;;3.90;1.45;;;8.80;79.90;;;;;;6205475;23;20024;-73
2023/12/31 07:46:59;;;;;;;5.95;1.63;;;8.80;80.10;;;;;;6203930;23;20092;-74
2023/12/31 07:49:27;;;;;;;5.20;1.40;;;8.80;80.10;;;;;;6205268;23;20025;-74
2023/12/31 07:51:54;;;;;;;4.40;1.10;;;8.80;80.10;;;;;;6205022;23;20021;-75
2023/12/31 07:54:23;;;;;;;3.80;1.42;;;8.80;80.00;;;;;;6205515;23;20121;-75
2023/12/31 07:56:50;;;;;;;3.85;1.60;;;8.80;80.10;;;;;;6203999;23;20035;-75
2023/12/31 07:59:17;;;;;;;4.10;1.50;;;8.80;80.10;;;;;;6176544;23;20021;-73
2023/12/31 08:01:44;;;;;;;3.70;1.10;;;8.90;80.00;;;;;;6177975;23;20049;-74
2023/12/31 08:04:11;;;;;;;3.87;1.20;;;8.90;80.00;;;;;;6199786;23;20058;-75
2023/12/31 08:06:43;;;;;;;3.28;1.10;;;8.90;80.00;;;;;;6203970;23;20032;-73
2023/12/31 08:09:13;;;;;;;3.63;1.42;;;8.90;79.90;;;;;;6205237;22;20103;-72
2023/12/31 08:11:40;;;;;;;3.40;1.13;;;9.00;80.00;;;;;;6180705;23;20693;-74
2023/12/31 08:14:07;;;;;;;3.58;1.40;;;9.00;79.60;;;;;;6203949;23;20135;-73
2023/12/31 08:16:34;;;;;;;3.73;1.30;;;9.00;79.60;;;;;;6207484;22;20021;-73
2023/12/31 08:19:03;;;;;;;3.60;1.10;;;9.00;79.50;;;;;;6182375;23;20172;-73
2023/12/31 08:21:31;;;;;;;5.00;1.58;;;9.00;79.40;;;;;;6201412;23;20024;-73
2023/12/31 08:23:59;;;;;;;4.30;1.38;;;9.00;79.30;;;;;;6204575;23;20025;-74
2023/12/31 08:29:27;;;;;;;5.07;1.47;;;9.00;79.30;;;;;;6179243;23;20029;-74
2023/12/31 08:32:05;;;;;;;4.00;1.38;;;9.00;79.40;;;;;;6178131;23;20021;-76
2023/12/31 08:34:32;;;;;;;5.97;1.10;;;9.00;79.10;;;;;;6206014;23;20036;-74
2023/12/31 08:36:59;;;;;;;3.35;1.27;;;9.00;79.10;;;;;;6207432;23;20104;-76
2023/12/31 08:43:55;;;;;;;5.37;1.50;;;9.00;78.90;;;;;;6120245;23;20025;-73
2023/12/31 08:46:25;;;;;;;4.45;1.30;;;9.10;79.00;;;;;;6133838;23;20027;-74
2023/12/31 08:51:50;;;;;;;4.03;1.50;;;9.10;78.90;;;;;;6102772;23;20024;-75
2023/12/31 08:54:17;;;;;;;4.40;1.60;;;9.20;78.70;;;;;;6182548;23;20025;-73
2023/12/31 08:56:46;;;;;;;4.23;1.50;;;9.20;78.60;;;;;;6208743;22;20458;-74
2023/12/31 08:59:13;;;;;;;4.22;1.40;;;9.20;78.90;;;;;;6207409;23;20083;-75
2023/12/31 09:01:40;;;;;;;3.90;1.42;;;9.20;78.70;;;;;;6203038;23;20096;-75
2023/12/31 09:04:10;;;;;;;4.40;1.50;;;9.20;78.70;;;;;;6181659;23;20025;-72
2023/12/31 09:06:38;;;;;;;3.92;1.70;;;9.20;78.70;;;;;;6204794;23;20029;-75
2023/12/31 09:09:06;;;;;;;4.30;1.50;;;9.20;78.80;;;;;;6207785;23;20087;-74
2023/12/31 09:11:33;;;;;;;4.10;1.50;;;9.20;78.80;;;;;;6177982;23;20028;-74
2023/12/31 09:14:01;;;;;;;4.13;1.45;;;9.20;78.80;;;;;;6204707;23;20030;-73
2023/12/31 09:16:28;;;;;;;4.03;1.40;;;9.20;78.90;;;;;;6205205;23;20064;-72
2023/12/31 09:18:57;;;;;;;4.75;1.35;;;9.20;78.70;;;;;;6179708;23;20087;-72
2023/12/31 09:21:26;;;;;;;4.30;1.40;;;9.20;78.60;;;;;;6177569;23;20493;-74
2023/12/31 09:23:53;;;;;;;3.88;1.50;;;9.30;78.40;;;;;;6204262;23;20087;-76
2023/12/31 09:26:21;;;;;;;4.53;1.40;;;9.30;78.30;;;;;;6209314;23;20125;-72
2023/12/31 09:28:50;;;;;;;5.00;1.48;;;9.30;78.40;;;;;;6183970;23;20029;-74
2023/12/31 09:31:24;;;;;;;4.20;1.33;;;9.30;78.50;;;;;;6214405;23;20894;-71
2023/12/31 09:33:51;;;;;;;3.90;1.57;;;9.40;78.20;;;;;;6181010;23;20025;-75
2023/12/31 09:36:18;;;;;;;4.85;1.88;;;9.40;78.30;;;;;;6209284;22;20438;-74
2023/12/31 09:38:45;;;;;;;3.80;1.60;;;9.40;78.50;;;;;;6209802;23;20032;-74
2023/12/31 09:41:22;;;;;;;3.97;1.40;;;9.40;78.60;;;;;;6182345;23;20051;-75
2023/12/31 09:43:52;;;;;;;4.47;1.65;;;9.40;78.50;;;;;;6210791;23;20032;-76
2023/12/31 09:46:21;;;;;;;5.10;1.73;;;9.40;78.20;;;;;;6181608;23;20068;-75
2023/12/31 09:48:50;;;;;;;5.20;1.60;;;9.40;78.20;;;;;;6209659;23;20021;-74
2023/12/31 09:51:18;;;;;;;4.10;1.60;;;9.40;78.20;;;;;;6205650;23;20075;-77
2023/12/31 09:53:46;;;;;;;4.30;1.38;;;9.40;78.30;;;;;;6210770;23;20032;-77
2023/12/31 09:56:13;;;;;;;5.60;1.52;;;9.50;78.30;;;;;;6211975;22;20025;-78
2023/12/31 09:58:42;;;;;;;3.87;1.57;;;9.50;78.40;;;;;;6211303;23;20798;-77
2023/12/31 10:01:09;;;;;;;4.50;1.63;;;9.50;78.50;;;;;;6191521;23;20092;-78
2023/12/31 10:03:40;;;;;;;4.72;1.52;;;9.50;78.40;;;;;;6209848;23;20029;-77
2023/12/31 10:06:08;;;;;;;4.70;1.80;;;9.50;78.40;;;;;;6184830;23;20502;-77
2023/12/31 10:08:36;;;;;;;5.03;1.80;;;9.50;78.50;;;;;;6185080;23;20505;-78
2023/12/31 10:11:04;;;;;;;4.77;1.80;;;9.50;78.60;;;;;;6209023;23;20075;-76
2023/12/31 10:13:31;;;;;;;4.10;1.73;;;9.60;78.50;;;;;;6214668;22;20674;-78
2023/12/31 10:15:58;;;;;;;5.32;1.70;;;9.60;78.60;;;;;;6212900;23;20196;-77
2023/12/31 10:18:26;;;;;;;5.00;1.90;;;9.60;78.60;;;;;;6182178;23;20848;-75
2023/12/31 10:20:55;;;;;;;4.70;1.60;;;9.60;78.50;;;;;;6184674;23;20021;-77
2023/12/31 10:23:22;;;;;;;5.17;1.70;;;9.60;78.40;;;;;;6210646;23;20096;-77
2023/12/31 10:25:49;;;;;;;4.45;1.70;;;9.70;78.40;;;;;;6183278;23;20045;-78
2023/12/31 10:28:18;;;;;;;5.10;1.90;;;9.70;78.10;;;;;;6205784;23;20107;-77
2023/12/31 10:30:48;;;;;;;5.47;2.60;;;9.70;77.90;;;;;;6202961;23;20507;-75
2023/12/31 10:33:17;;;;;;;5.25;2.30;;;9.70;78.00;;;;;;6179760;23;20025;-77
2023/12/31 10:35:46;;;;;;;4.37;1.93;;;9.80;77.80;;;;;;6202875;23;20036;-75
2023/12/31 10:38:15;;;;;;;5.18;2.10;;;9.80;77.90;;;;;;6180939;23;20035;-77
2023/12/31 10:40:43;;;;;;;4.50;1.80;;;9.80;77.80;;;;;;6202264;23;20048;-76
2023/12/31 10:43:12;;;;;;;5.18;2.38;;;9.80;77.80;;;;;;6203311;23;20033;-75
2023/12/31 10:45:40;;;;;;;4.78;2.15;;;9.90;78.00;;;;;;6203141;23;20032;-76
2023/12/31 10:48:08;;;;;;;5.47;2.30;;;9.90;77.80;;;;;;6208948;23;20651;-77
2023/12/31 10:50:39;;;;;;;5.05;2.10;;;9.90;77.90;;;;;;6186218;23;20969;-78
2023/12/31 10:57:59;;;;;;;4.35;2.00;;;10.00;77.30;;;;;;6216664;22;20029;-80
2023/12/31 11:00:32;;;;;;;4.80;2.13;;;10.10;76.90;;;;;;6217273;23;20044;-78
2023/12/31 11:03:18;;;;;;;4.80;2.03;;;10.10;76.90;;;;;;6195461;23;20021;-80
2023/12/31 11:09:47;;;;;;;5.97;2.42;;;10.20;76.90;;;;;;6185347;22;20063;-79
2023/12/31 11:12:16;;;;;;;4.65;2.00;;;10.20;77.10;;;;;;6206365;23;20105;-80
2023/12/31 11:14:48;;;;;;;4.75;1.90;;;10.20;77.00;;;;;;6184910;23;20029;-80
2023/12/31 11:17:35;;;;;;;4.40;2.00;;;10.30;77.10;;;;;;6211380;23;20086;-79
2023/12/31 11:20:35;;;;;;;4.68;2.00;;;10.20;77.20;;;;;;6208186;23;20548;-77
2023/12/31 11:23:10;;;;;;;4.38;2.25;;;10.30;77.20;;;;;;6184044;23;20096;-77
2023/12/31 11:25:38;;;;;;;5.28;1.80;;;10.30;77.20;;;;;;6211362;22;20711;-79
2023/12/31 11:28:08;;;;;;;4.43;1.63;;;10.30;76.70;;;;;;6210753;23;20021;-78
2023/12/31 11:30:51;;;;;;;4.63;1.67;;;10.30;77.00;;;;;;6206314;22;20099;-77
2023/12/31 11:33:19;;;;;;;4.22;1.80;;;10.30;77.20;;;;;;6211740;22;20064;-77
2023/12/31 11:35:47;;;;;;;3.65;1.67;;;10.30;77.50;;;;;;6209966;23;20021;-77
2023/12/31 11:38:16;;;;;;;3.42;0.85;;;10.40;77.50;;;;;;6188042;23;20794;-77
2023/12/31 11:40:43;;;;;;;3.25;0.70;;;10.30;76.60;;;;;;6182809;23;20358;-77
2023/12/31 11:43:13;;;;;;;2.10;0.40;;;10.20;76.50;;;;;;6209953;22;20121;-77
2023/12/31 11:45:42;;;;;;;2.60;0.43;;;10.10;76.40;;;;;;6182584;23;20060;-77
2023/12/31 11:48:33;;;;;;;3.47;0.50;;;10.00;76.50;;;;;;6209067;22;20067;-77
2023/12/31 11:51:01;;;;;;;1.90;0.30;;;9.80;77.00;;;;;;6159823;23;20079;-77
2023/12/31 11:53:30;;;;;;;2.95;0.40;;;9.60;77.20;;;;;;6210358;22;20083;-77
2023/12/31 11:55:58;;;;;;;2.40;0.30;;;9.50;77.20;;;;;;6179384;23;20029;-80
2023/12/31 11:58:29;;;;;;;2.08;0.17;;;9.40;77.60;;;;;;6180369;23;20063;-77
2023/12/31 12:00:56;;;;;;;4.25;0.30;;;9.30;77.80;;;;;;6207845;22;20021;-81
2023/12/31 12:03:23;;;;;;;2.30;0.20;;;9.20;78.30;;;;;;6206644;23;20021;-76
2023/12/31 12:05:51;;;;;;;3.83;1.20;;;9.20;78.50;;;;;;6207251;22;20045;-78
2023/12/31 12:08:18;;;;;;;4.00;2.20;;;9.00;78.90;;;;;;6200531;23;20039;-81
2023/12/31 12:10:45;;;;;;;4.28;1.50;;;9.00;79.20;;;;;;6203706;23;20033;-82
2023/12/31 12:13:13;;;;;;;3.72;1.20;;;9.00;79.70;;;;;;6208791;23;20029;-78
2023/12/31 12:15:41;;;;;;;3.08;0.80;;;9.00;80.20;;;;;;6203264;23;20055;-77
2023/12/31 12:18:21;;;;;;;2.58;0.50;;;9.00;80.50;;;;;;6203436;23;20108;-75
2023/12/31 12:20:48;;;;;;;2.93;0.50;;;9.00;81.40;;;;;;6203779;23;20888;-77
2023/12/31 12:23:18;;;;;;;2.97;0.88;;;9.00;81.70;;;;;;6180662;23;20029;-75
2023/12/31 12:25:46;;;;;;;3.90;0.90;;;9.00;82.00;;;;;;6206708;23;20777;-80
2023/12/31 12:28:15;;;;;;;3.88;0.70;;;9.00;82.30;;;;;;6205173;22;20643;-78
2023/12/31 12:30:44;;;;;;;3.78;1.15;;;9.10;82.00;;;;;;6207134;23;20105;-79
2023/12/31 12:33:12;;;;;;;2.10;0.47;;;9.10;82.10;;;;;;6181441;23;20775;-76
2023/12/31 12:35:40;;;;;;;2.85;0.40;;;9.20;82.20;;;;;;6206487;23;20021;-76
2023/12/31 12:38:09;;;;;;;2.70;0.60;;;9.20;82.20;;;;;;6180920;23;20360;-76
2023/12/31 12:40:36;;;;;;;3.03;0.50;;;9.30;82.00;;;;;;6206124;23;20025;-76
2023/12/31 12:43:05;;;;;;;3.90;0.70;;;9.40;81.60;;;;;;6206966;23;20032;-75
2023/12/31 12:45:32;;;;;;;29.77;17.10;;;9.40;81.70;;;;;;6203100;23;20104;-75
2023/12/31 12:48:02;;;;;;;7.28;3.42;;;9.40;81.50;;;;;;6207300;23;20115;-75
2023/12/31 12:50:30;;;;;;;6.35;2.58;;;9.40;81.50;;;;;;6207932;22;20098;-76
2023/12/31 12:52:58;;;;;;;6.85;3.05;;;9.40;81.40;;;;;;6182065;23;20111;-77
2023/12/31 12:55:25;;;;;;;5.38;2.63;;;9.40;81.40;;;;;;6208013;23;20032;-78
2023/12/31 12:57:52;;;;;;;5.70;2.40;;;9.40;81.40;;;;;;6207697;23;20051;-77
2023/12/31 13:00:19;;;;;;;3.75;1.27;;;9.40;81.40;;;;;;6209799;22;20032;-76
2023/12/31 13:02:46;;;;;;;4.22;1.50;;;9.40;81.60;;;;;;6205917;23;20031;-76
2023/12/31 13:05:15;;;;;;;5.65;2.10;;;9.40;81.70;;;;;;6203254;23;20021;-76
2023/12/31 13:07:42;;;;;;;4.68;1.05;;;9.40;81.90;;;;;;6208278;22;20032;-77
2023/12/31 13:10:09;;;;;;;4.07;1.00;;;9.50;79.80;;;;;;6205878;23;20047;-82
2023/12/31 13:12:36;;;;;;;3.90;0.60;;;9.50;78.70;;;;;;6205092;23;20021;-75
2023/12/31 13:15:04;;;;;;;4.57;0.65;;;9.50;76.40;;;;;;6178638;23;20043;-78
2023/12/31 13:17:31;;;;;;;3.47;0.57;;;9.40;75.80;;;;;;6204371;23;20052;-78
2023/12/31 13:19:58;;;;;;;2.85;0.55;;;9.40;76.20;;;;;;6203602;23;20095;-78
2023/12/31 13:22:26;;;;;;;3.10;0.40;;;9.40;75.80;;;;;;6202500;23;20109;-78
2023/12/31 13:24:53;;;;;;;4.25;0.70;;;9.30;76.10;;;;;;6201859;22;20080;-75
2023/12/31 13:27:22;;;;;;;4.15;0.50;;;9.20;76.50;;;;;;6204775;23;20064;-74